createdAt,value
2023-08-08T00:00:31.924Z,13.6
2023-08-08T00:02:35.403Z,13.7
2023-08-08T00:04:38.826Z,13.8
2023-08-08T00:06:45.408Z,13.8
2023-08-08T00:08:48.879Z,13.8
2023-08-08T00:10:52.364Z,13.9
2023-08-08T00:12:55.825Z,13.8
2023-08-08T00:14:59.300Z,13.9
2023-08-08T00:17:02.761Z,13.9
2023-08-08T00:19:06.237Z,13.8
2023-08-08T00:21:12.795Z,13.9
2023-08-08T00:23:16.237Z,13.9
2023-08-08T00:25:19.757Z,13.9
2023-08-08T00:27:23.214Z,13.9
2023-08-08T00:29:26.641Z,13.9
2023-08-08T00:31:30.220Z,13.9
2023-08-08T00:33:33.617Z,14
2023-08-08T00:35:40.201Z,13.9
2023-08-08T00:37:43.655Z,14
2023-08-08T00:43:54.101Z,14
2023-08-08T00:52:11.463Z,14.1
2023-08-08T00:55:18.201Z,14
2023-08-08T00:57:21.696Z,14.1
2023-08-08T00:59:25.170Z,14.1
2023-08-08T01:03:35.230Z,13.9
2023-08-08T01:05:38.639Z,14
2023-08-08T01:09:45.636Z,14
2023-08-08T01:11:49.073Z,13.9
2023-08-08T01:13:52.562Z,13.9
2023-08-08T01:15:56.046Z,13.8
2023-08-08T01:18:02.626Z,14
2023-08-08T01:22:09.552Z,13.8
2023-08-08T01:24:12.995Z,13.8
2023-08-08T01:26:16.471Z,13.9
2023-08-08T01:28:19.978Z,13.9
2023-08-08T01:30:23.425Z,13.8
2023-08-08T01:38:40.451Z,13.8
2023-08-08T01:40:43.888Z,13.8
2023-08-08T01:42:47.338Z,13.7
2023-08-08T01:46:57.438Z,13.7
2023-08-08T01:51:04.389Z,13.7
2023-08-08T01:58:18.086Z,13.7
2023-08-08T02:10:41.989Z,13.9
2023-08-08T02:23:05.923Z,13.9
2023-08-08T02:27:12.860Z,13.8
2023-08-08T02:31:22.975Z,13.9
2023-08-08T02:33:26.356Z,13.9
2023-08-08T02:37:33.278Z,13.8
2023-08-08T02:39:36.766Z,13.9
2023-08-08T02:43:46.755Z,13.8
2023-08-08T02:45:50.254Z,13.8
2023-08-08T02:48:56.965Z,13.8
2023-08-08T02:51:00.410Z,13.8
2023-08-08T03:01:20.957Z,13.7
2023-08-08T03:03:24.374Z,13.6
2023-08-08T03:05:27.855Z,13.8
2023-08-08T03:11:41.950Z,13.7
2023-08-08T03:21:59.611Z,13.7
2023-08-08T03:24:02.775Z,13.7
2023-08-08T03:28:12.809Z,13.7
2023-08-08T03:30:16.293Z,13.6
2023-08-08T03:36:26.698Z,13.6
2023-08-08T03:40:36.774Z,13.7
2023-08-08T03:42:40.239Z,13.7
2023-08-08T03:44:43.687Z,13.7
2023-08-08T03:53:15.252Z,13.8
2023-08-08T03:55:18.744Z,13.8
2023-08-08T04:01:29.142Z,13.8
2023-08-08T04:03:32.638Z,13.7
2023-08-08T04:05:36.064Z,13.7
2023-08-08T04:07:42.600Z,13.7
2023-08-08T04:09:46.062Z,13.7
2023-08-08T04:11:49.528Z,13.7
2023-08-08T04:13:53.001Z,13.7
2023-08-08T04:26:16.996Z,13.7
2023-08-08T04:28:20.481Z,13.7
2023-08-08T04:30:23.966Z,13.7
2023-08-08T04:34:30.908Z,13.7
2023-08-08T04:36:37.462Z,13.7
2023-08-08T04:38:40.956Z,13.7
2023-08-08T04:40:44.432Z,13.7
2023-08-08T04:41:47.684Z,13.8
2023-08-08T04:43:51.163Z,13.7
2023-08-08T04:45:54.649Z,13.7
2023-08-08T04:47:58.142Z,13.7
2023-08-08T04:54:12.123Z,13.7
2023-08-08T04:56:15.576Z,13.8
2023-08-08T04:58:19.052Z,13.7
2023-08-08T05:00:22.544Z,13.8
2023-08-08T05:02:26.007Z,13.7
2023-08-08T05:10:42.990Z,13.9
2023-08-08T05:12:46.442Z,13.9
2023-08-08T05:14:49.909Z,13.9
2023-08-08T05:16:53.388Z,13.9
2023-08-08T05:18:59.984Z,14.1
2023-08-08T05:21:03.474Z,14.1
2023-08-08T05:25:10.468Z,14.1
2023-08-08T05:27:13.892Z,14.2
2023-08-08T05:29:17.353Z,14.2
2023-08-08T05:33:27.382Z,14.3
2023-08-08T05:35:30.873Z,14.3
2023-08-08T05:37:34.355Z,14.4
2023-08-08T05:38:37.639Z,14.4
2023-08-08T05:44:48.040Z,14.3
2023-08-08T05:46:54.607Z,14.4
2023-08-08T05:48:58.066Z,14.5
2023-08-08T05:51:01.531Z,14.6
2023-08-08T05:53:04.994Z,14.6
2023-08-08T06:01:21.997Z,14.8
2023-08-08T06:03:25.470Z,14.9
2023-08-08T06:11:39.276Z,15.1
2023-08-08T06:26:06.642Z,15.5
2023-08-08T06:35:26.817Z,15.8
2023-08-08T06:37:30.267Z,15.7
2023-08-08T06:39:33.714Z,15.9
2023-08-08T06:41:37.152Z,15.9
2023-08-08T06:43:43.693Z,16.1
2023-08-08T06:45:47.216Z,16.1
2023-08-08T06:47:50.633Z,16.1
2023-08-08T06:49:54.017Z,16.1
2023-08-08T06:51:57.799Z,16.2
2023-08-08T06:54:00.896Z,16.2
2023-08-08T06:56:04.291Z,16.3
2023-08-08T06:58:10.827Z,16.6
2023-08-08T07:00:14.248Z,16.7
2023-08-08T07:02:17.705Z,16.6
2023-08-08T07:04:21.068Z,16.6
2023-08-08T07:06:24.516Z,16.6
2023-08-08T07:10:31.344Z,17.3
2023-08-08T07:22:54.971Z,17
2023-08-08T07:27:04.922Z,18
2023-08-08T07:29:08.309Z,17.7
2023-08-08T07:31:11.761Z,17.7
2023-08-08T07:33:33.860Z,17.3
2023-08-08T07:35:37.304Z,17.4
2023-08-08T07:37:40.697Z,18.2
2023-08-08T07:39:47.253Z,18.2
2023-08-08T07:41:50.650Z,18.1
2023-08-08T07:43:53.906Z,17.8
2023-08-08T07:45:57.234Z,17.5
2023-08-08T07:48:00.548Z,17.5
2023-08-08T07:50:03.829Z,17.9
2023-08-08T07:52:08.012Z,17.8
2023-08-08T07:54:14.432Z,17.8
2023-08-08T07:56:17.814Z,17.7
2023-08-08T07:58:21.252Z,17.5
2023-08-08T08:00:24.627Z,17.7
2023-08-08T08:02:28.032Z,18.1
2023-08-08T08:04:31.374Z,18.2
2023-08-08T08:06:34.798Z,17.9
2023-08-08T08:08:41.285Z,18.1
2023-08-08T08:12:48.037Z,17.9
2023-08-08T08:14:51.444Z,17.7
2023-08-08T08:27:14.778Z,18.4
2023-08-08T08:28:17.918Z,18.4
2023-08-08T08:30:21.177Z,18.4
2023-08-08T08:32:24.583Z,18.4
2023-08-08T08:34:27.957Z,18.5
2023-08-08T08:36:34.418Z,18.4
2023-08-08T08:40:41.175Z,18.7
2023-08-08T08:46:51.208Z,18.5
2023-08-08T09:03:20.684Z,18.5
2023-08-08T09:05:26.948Z,18.4
2023-08-08T09:07:30.288Z,18.3
2023-08-08T09:09:33.629Z,18.7
2023-08-08T09:11:36.897Z,19.3
2023-08-08T09:13:40.100Z,19.5
2023-08-08T09:15:43.438Z,19.2
2023-08-08T09:17:49.343Z,19.3
2023-08-08T09:19:52.877Z,19.3
2023-08-08T09:21:56.188Z,19.8
2023-08-08T09:25:02.573Z,19.3
2023-08-08T09:29:09.064Z,18.9
2023-08-08T09:31:12.423Z,18.8
2023-08-08T09:33:18.594Z,19.3
2023-08-08T09:35:21.848Z,19.3
2023-08-08T09:37:25.057Z,18.9
2023-08-08T09:39:28.275Z,18.5
2023-08-08T09:49:47.461Z,18.8
2023-08-08T10:04:13.082Z,19.2
2023-08-08T10:06:16.292Z,19.3
2023-08-08T10:08:19.508Z,19.4
2023-08-08T10:10:22.673Z,19.6
2023-08-08T10:12:25.913Z,20.2
2023-08-08T10:14:29.132Z,20
2023-08-08T10:16:35.422Z,19.3
2023-08-08T10:20:41.781Z,19.1
2023-08-08T10:21:44.887Z,19.4
2023-08-08T10:48:32.787Z,18.9
2023-08-08T10:50:37.535Z,19.3
2023-08-08T10:52:40.671Z,18.9
2023-08-08T11:11:12.490Z,19.4
2023-08-08T11:13:18.742Z,19.6
2023-08-08T11:15:21.914Z,19.4
2023-08-08T11:17:25.089Z,19.7
2023-08-08T11:19:48.722Z,20.2
2023-08-08T11:21:51.911Z,20.3
2023-08-08T11:23:55.064Z,20.1
2023-08-08T11:28:04.413Z,20.5
2023-08-08T11:32:10.712Z,20.6
2023-08-08T11:34:13.886Z,20.5
2023-08-08T11:38:20.085Z,21.7
2023-08-08T11:44:32.428Z,20.8
2023-08-08T11:48:38.577Z,20.5
2023-08-08T11:50:41.627Z,20.1
2023-08-08T11:54:50.793Z,20
2023-08-08T11:56:53.827Z,20
2023-08-08T11:58:56.916Z,20.1
2023-08-08T12:01:00.072Z,20.2
2023-08-08T12:03:03.261Z,20.7
2023-08-08T12:05:06.197Z,20.7
2023-08-08T12:07:09.280Z,20.5
2023-08-08T12:09:15.391Z,20
2023-08-08T12:13:21.551Z,20.8
2023-08-08T12:14:24.588Z,20.9
2023-08-08T12:18:30.765Z,20.4
2023-08-08T12:20:33.822Z,20.1
2023-08-08T12:22:39.982Z,19.6
2023-08-08T12:28:49.240Z,19.6
2023-08-08T12:30:52.365Z,19.5
2023-08-08T12:32:55.462Z,19.3
2023-08-08T12:34:58.534Z,19.4
2023-08-08T12:37:04.694Z,20
2023-08-08T12:39:07.785Z,20.1
2023-08-08T12:41:10.895Z,20
2023-08-08T12:43:14.020Z,19.6
2023-08-08T12:45:17.137Z,19.7
2023-08-08T12:47:20.261Z,19.6
2023-08-08T12:53:32.704Z,19.4
2023-08-08T12:55:35.834Z,19.3
2023-08-08T12:57:38.990Z,19.3
2023-08-08T12:59:42.142Z,19.2
2023-08-08T13:01:45.356Z,19.1
2023-08-08T13:03:56.136Z,19.1
2023-08-08T13:05:54.685Z,19.1
2023-08-08T13:07:57.810Z,19.3
2023-08-08T13:10:00.994Z,19.4
2023-08-08T13:15:10.462Z,19.6
2023-08-08T13:25:29.392Z,19.2
2023-08-08T13:27:32.560Z,19.4
2023-08-08T13:29:35.763Z,20
2023-08-08T13:31:38.920Z,20.4
2023-08-08T13:33:45.145Z,20
2023-08-08T13:35:48.285Z,20
2023-08-08T13:39:54.659Z,19.6
2023-08-08T13:41:57.989Z,19.3
2023-08-08T13:52:16.762Z,19.3
2023-08-08T13:54:19.961Z,19.2
2023-08-08T13:56:23.118Z,19.7
2023-08-08T14:00:29.444Z,19.9
2023-08-08T14:02:35.724Z,19.2
2023-08-08T14:04:38.860Z,19.1
2023-08-08T14:06:42.029Z,19.9
2023-08-08T14:07:45.105Z,20.2
2023-08-08T14:09:48.358Z,20.1
2023-08-08T14:11:51.465Z,20.3
2023-08-08T14:16:00.868Z,20
2023-08-08T14:18:03.998Z,20.1
2023-08-08T14:20:07.168Z,20.4
2023-08-08T14:28:19.742Z,19.9
2023-08-08T14:30:25.900Z,19.6
2023-08-08T14:32:29.142Z,19.6
2023-08-08T14:42:44.792Z,19.3
2023-08-08T14:44:50.992Z,19.2
2023-08-08T14:46:54.179Z,19.1
2023-08-08T14:48:57.324Z,19.1
2023-08-08T14:51:00.517Z,19.4
2023-08-08T14:53:03.695Z,19.2
2023-08-08T14:55:06.854Z,19
2023-08-08T14:57:10.033Z,18.9
2023-08-08T14:59:16.249Z,19.2
2023-08-08T15:01:19.458Z,19.2
2023-08-08T15:03:22.651Z,19.1
2023-08-08T15:05:46.514Z,19.1
2023-08-08T15:07:49.662Z,19.1
2023-08-08T15:09:52.843Z,19
2023-08-08T15:11:59.082Z,19.2
2023-08-08T15:14:02.278Z,19.1
2023-08-08T15:18:08.752Z,19.6
2023-08-08T15:20:11.912Z,19.6
2023-08-08T15:32:34.228Z,19.5
2023-08-08T15:34:37.385Z,19.3
2023-08-08T15:36:40.594Z,19.5
2023-08-08T15:38:43.820Z,19.6
2023-08-08T15:40:50.042Z,19.1
2023-08-08T15:46:59.911Z,18.9
2023-08-08T15:51:06.088Z,18.7
2023-08-08T15:53:09.338Z,18.6
2023-08-08T15:55:15.548Z,18.5
2023-08-08T15:57:18.758Z,18.5
2023-08-08T15:59:22.008Z,18.5
2023-08-08T16:00:25.156Z,18.6
2023-08-08T16:02:28.413Z,18.6
2023-08-08T16:12:47.523Z,18.9
2023-08-08T16:14:50.751Z,18.9
2023-08-08T16:21:00.644Z,19.7
2023-08-08T16:23:07.089Z,19.6
2023-08-08T16:25:10.317Z,19.7
2023-08-08T16:27:13.552Z,19.8
2023-08-08T16:29:16.768Z,20
2023-08-08T16:31:20.089Z,19.8
2023-08-08T16:33:23.253Z,19.7
2023-08-08T16:35:26.458Z,19.7
2023-08-08T16:37:32.744Z,19.6
2023-08-08T16:43:42.332Z,18.9
2023-08-08T16:45:47.120Z,18.9
2023-08-08T16:47:50.266Z,18.8
2023-08-08T16:49:53.480Z,18.7
2023-08-08T16:52:00.251Z,18.6
2023-08-08T16:57:09.519Z,18.6
2023-08-08T17:07:28.859Z,18.4
2023-08-08T17:09:32.107Z,18.3
2023-08-08T17:11:35.343Z,18.3
2023-08-08T17:15:41.953Z,18.1
2023-08-08T17:17:45.223Z,18.1
2023-08-08T17:19:51.542Z,18.1
2023-08-08T17:23:58.148Z,18.1
2023-08-08T17:28:04.864Z,18
2023-08-08T17:32:11.500Z,17.9
2023-08-08T17:42:31.241Z,17.8
2023-08-08T17:44:34.594Z,17.8
2023-08-08T17:53:54.309Z,17.7
2023-08-08T17:55:57.687Z,17.7
2023-08-08T18:00:04.468Z,17.6
2023-08-08T18:02:10.972Z,17.5
2023-08-08T18:04:14.309Z,17.5
2023-08-08T18:06:17.684Z,17.4
2023-08-08T18:08:21.061Z,17.4
2023-08-08T18:10:24.404Z,17.3
2023-08-08T18:14:31.178Z,17.2
2023-08-08T18:18:41.050Z,17.2
2023-08-08T18:20:44.458Z,17.1
2023-08-08T18:22:47.837Z,17.1
2023-08-08T18:24:51.238Z,17.1
2023-08-08T18:26:54.600Z,17.1
2023-08-08T18:28:57.977Z,17
2023-08-08T18:31:04.473Z,16.9
2023-08-08T18:33:07.911Z,16.8
2023-08-08T18:35:11.260Z,16.8
2023-08-08T18:39:18.008Z,16.5
2023-08-08T18:41:21.326Z,16.4
2023-08-08T18:43:24.728Z,16.3
2023-08-08T18:45:31.264Z,16.2
2023-08-08T18:47:34.640Z,16.2
2023-08-08T18:49:38.049Z,16.2
2023-08-08T18:56:14.678Z,15.9
2023-08-08T19:06:34.808Z,15.3
2023-08-08T19:08:38.215Z,15.2
2023-08-08T19:10:41.670Z,15.1
2023-08-08T19:12:48.178Z,15.1
2023-08-08T19:14:51.564Z,15.1
2023-08-08T19:16:55.041Z,15
2023-08-08T19:18:58.468Z,15.1
2023-08-08T19:21:01.870Z,15.1
2023-08-08T19:23:05.354Z,15.1
2023-08-08T19:25:08.732Z,15.1
2023-08-08T19:37:32.448Z,14.9
2023-08-08T19:39:36.191Z,14.9
2023-08-08T19:46:52.652Z,14.9
2023-08-08T19:48:56.064Z,14.8
2023-08-08T19:50:59.467Z,14.8
2023-08-08T19:53:02.913Z,14.7
2023-08-08T19:57:12.849Z,14.7
2023-08-08T19:59:16.340Z,14.7
2023-08-08T20:03:23.240Z,14.6
2023-08-08T20:05:26.634Z,14.5
2023-08-08T20:07:30.022Z,14.5
2023-08-08T20:11:40.007Z,14.4
2023-08-08T20:13:43.420Z,14.2
2023-08-08T20:15:46.915Z,14.3
2023-08-08T20:17:50.379Z,14.3
2023-08-08T20:19:53.713Z,14.2
2023-08-08T20:21:57.658Z,14.1
2023-08-08T20:24:05.045Z,14.1
2023-08-08T20:26:07.107Z,14
2023-08-08T20:28:10.554Z,14
2023-08-08T20:30:13.971Z,14
2023-08-08T20:32:17.412Z,14.1
2023-08-08T20:34:20.870Z,14
2023-08-08T20:36:24.287Z,14
2023-08-08T20:38:30.849Z,14
2023-08-08T20:40:34.282Z,14
2023-08-08T20:43:40.972Z,13.8
2023-08-08T20:45:44.464Z,13.9
2023-08-08T20:47:47.962Z,13.9
2023-08-08T20:49:52.415Z,13.8
2023-08-08T21:10:32.089Z,13.7
2023-08-08T21:12:35.504Z,13.7
2023-08-08T21:14:39.006Z,13.7
2023-08-08T21:16:42.457Z,13.7
2023-08-08T21:20:52.374Z,13.6
2023-08-08T21:24:59.299Z,13.6
2023-08-08T21:31:09.695Z,13.8
2023-08-08T21:33:13.158Z,13.7
2023-08-08T21:35:19.714Z,13.6
2023-08-08T21:37:23.141Z,13.8
2023-08-08T21:39:26.588Z,13.8
2023-08-08T21:40:29.869Z,13.8
2023-08-08T21:42:33.334Z,13.7
2023-08-08T21:44:36.832Z,13.6
2023-08-08T21:48:46.855Z,13.5
2023-08-08T21:50:50.312Z,13.7
2023-08-08T21:52:53.791Z,13.6
2023-08-08T21:54:57.248Z,13.7
2023-08-08T21:57:01.101Z,13.6
2023-08-08T22:01:07.671Z,13.6
2023-08-08T22:03:14.289Z,13.7
2023-08-08T22:07:21.153Z,13.8
2023-08-08T22:09:24.581Z,13.7
2023-08-08T22:11:28.072Z,13.6
2023-08-08T22:13:31.521Z,13.8
2023-08-08T22:17:45.254Z,13.8
2023-08-08T22:19:45.005Z,13.6
2023-08-08T22:21:48.477Z,13.7
2023-08-08T22:23:51.948Z,13.7
2023-08-08T22:25:55.413Z,13.7
2023-08-08T22:27:58.877Z,13.7
2023-08-08T22:30:02.372Z,13.6
2023-08-08T22:38:34.079Z,13.7
2023-08-08T22:40:39.096Z,13.7
2023-08-08T22:42:42.522Z,13.7
2023-08-08T22:44:49.058Z,13.5
2023-08-08T22:46:52.498Z,13.5
2023-08-08T22:48:56.029Z,13.5
2023-08-08T22:50:59.480Z,13.5
2023-08-08T22:53:02.947Z,13.5
2023-08-08T22:55:06.417Z,13.6
2023-08-08T22:57:09.922Z,13.6
2023-08-08T22:59:16.439Z,13.5
2023-08-08T23:01:19.954Z,13.4
2023-08-08T23:05:26.925Z,13.5
2023-08-08T23:07:30.349Z,13.4
2023-08-08T23:09:33.861Z,13.3
2023-08-08T23:11:37.323Z,13.4
2023-08-08T23:13:43.868Z,13.4
2023-08-08T23:21:57.836Z,13.2
2023-08-08T23:28:11.298Z,13.3
2023-08-08T23:30:14.783Z,13.4
2023-08-08T23:32:18.274Z,13.4
2023-08-08T23:33:21.628Z,13.3
2023-08-08T23:35:25.028Z,13.2
2023-08-08T23:39:31.966Z,13.3
2023-08-08T23:43:44.338Z,13.2
2023-08-08T23:45:45.522Z,13.2
2023-08-08T23:47:49.079Z,13.2
2023-08-08T23:49:52.462Z,13.3
2023-08-08T23:51:55.946Z,13.3
2023-08-08T23:53:59.383Z,13.3
2023-08-08T23:56:05.921Z,13.1
2023-08-08T23:58:09.400Z,13
